sensor_id;sensor_type;location;lat;lon;timestamp;temperature;humidity
10306;DHT22;5198;52.382;9.020;2023-04-06T00:02:24;2.60;99.90
10306;DHT22;5198;52.382;9.020;2023-04-06T00:06:27;2.50;99.90
10306;DHT22;5198;52.382;9.020;2023-04-06T00:14:34;2.40;99.90
10306;DHT22;5198;52.382;9.020;2023-04-06T00:18:37;2.30;99.90
10306;DHT22;5198;52.382;9.020;2023-04-06T00:22:40;2.30;99.90
10306;DHT22;5198;52.382;9.020;2023-04-06T00:26:43;2.30;99.90
10306;DHT22;5198;52.382;9.020;2023-04-06T00:30:47;2.20;99.90
10306;DHT22;5198;52.382;9.020;2023-04-06T00:34:50;2.20;99.90
10306;DHT22;5198;52.382;9.020;2023-04-06T00:38:53;2.20;99.90
10306;DHT22;5198;52.382;9.020;2023-04-06T00:42:55;2.10;99.90
10306;DHT22;5198;52.382;9.020;2023-04-06T00:46:59;2.10;99.90
10306;DHT22;5198;52.382;9.020;2023-04-06T00:51:02;2.10;99.90
10306;DHT22;5198;52.382;9.020;2023-04-06T00:55:06;2.00;99.90
10306;DHT22;5198;52.382;9.020;2023-04-06T00:59:09;2.00;99.90
10306;DHT22;5198;52.382;9.020;2023-04-06T01:03:13;1.90;99.90
10306;DHT22;5198;52.382;9.020;2023-04-06T01:07:16;1.80;99.90
10306;DHT22;5198;52.382;9.020;2023-04-06T01:11:19;1.80;99.90
10306;DHT22;5198;52.382;9.020;2023-04-06T01:15:22;1.70;99.90
10306;DHT22;5198;52.382;9.020;2023-04-06T01:19:27;1.70;99.90
10306;DHT22;5198;52.382;9.020;2023-04-06T01:23:31;1.60;99.90
10306;DHT22;5198;52.382;9.020;2023-04-06T01:27:34;1.50;99.90
10306;DHT22;5198;52.382;9.020;2023-04-06T01:31:37;1.40;99.90
10306;DHT22;5198;52.382;9.020;2023-04-06T01:35:40;1.40;99.90
10306;DHT22;5198;52.382;9.020;2023-04-06T01:39:45;1.30;99.90
10306;DHT22;5198;52.382;9.020;2023-04-06T01:43:48;1.30;99.90
10306;DHT22;5198;52.382;9.020;2023-04-06T01:47:50;1.20;99.90
10306;DHT22;5198;52.382;9.020;2023-04-06T01:51:53;1.20;99.90
10306;DHT22;5198;52.382;9.020;2023-04-06T01:55:57;1.10;99.90
10306;DHT22;5198;52.382;9.020;2023-04-06T02:00:00;1.10;99.90
10306;DHT22;5198;52.382;9.020;2023-04-06T02:04:03;1.10;99.90
10306;DHT22;5198;52.382;9.020;2023-04-06T02:08:06;1.00;99.90
10306;DHT22;5198;52.382;9.020;2023-04-06T02:12:10;1.00;99.90
10306;DHT22;5198;52.382;9.020;2023-04-06T02:16:13;0.90;99.90
10306;DHT22;5198;52.382;9.020;2023-04-06T02:20:16;0.90;99.90
10306;DHT22;5198;52.382;9.020;2023-04-06T02:24:19;0.90;99.90
10306;DHT22;5198;52.382;9.020;2023-04-06T02:28:23;0.80;99.90
10306;DHT22;5198;52.382;9.020;2023-04-06T02:32:26;0.80;99.90
10306;DHT22;5198;52.382;9.020;2023-04-06T02:36:29;0.70;99.90
10306;DHT22;5198;52.382;9.020;2023-04-06T02:40:31;0.70;99.90
10306;DHT22;5198;52.382;9.020;2023-04-06T02:44:36;0.70;99.90
10306;DHT22;5198;52.382;9.020;2023-04-06T02:48:38;0.60;99.90
10306;DHT22;5198;52.382;9.020;2023-04-06T02:52:41;0.60;99.90
10306;DHT22;5198;52.382;9.020;2023-04-06T02:56:44;0.60;99.90
10306;DHT22;5198;52.382;9.020;2023-04-06T03:00:48;0.60;99.90
10306;DHT22;5198;52.382;9.020;2023-04-06T03:04:51;0.50;99.90
10306;DHT22;5198;52.382;9.020;2023-04-06T03:08:54;0.50;99.90
10306;DHT22;5198;52.382;9.020;2023-04-06T03:12:57;0.50;99.90
10306;DHT22;5198;52.382;9.020;2023-04-06T03:17:01;0.40;99.90
10306;DHT22;5198;52.382;9.020;2023-04-06T03:21:04;0.40;99.90
10306;DHT22;5198;52.382;9.020;2023-04-06T03:25:07;0.30;99.90
10306;DHT22;5198;52.382;9.020;2023-04-06T03:29:10;0.30;99.90
10306;DHT22;5198;52.382;9.020;2023-04-06T03:33:14;0.20;99.90
10306;DHT22;5198;52.382;9.020;2023-04-06T03:37:17;0.20;99.90
10306;DHT22;5198;52.382;9.020;2023-04-06T03:41:20;0.10;99.90
10306;DHT22;5198;52.382;9.020;2023-04-06T03:45:23;0.10;99.90
10306;DHT22;5198;52.382;9.020;2023-04-06T03:49:27;0.10;99.90
10306;DHT22;5198;52.382;9.020;2023-04-06T03:53:30;0.10;99.90
10306;DHT22;5198;52.382;9.020;2023-04-06T03:57:32;0.00;99.90
10306;DHT22;5198;52.382;9.020;2023-04-06T04:01:35;0.00;99.90
10306;DHT22;5198;52.382;9.020;2023-04-06T04:05:39;0.00;99.90
10306;DHT22;5198;52.382;9.020;2023-04-06T04:09:42;0.00;99.90
10306;DHT22;5198;52.382;9.020;2023-04-06T04:13:45;0.00;99.90
10306;DHT22;5198;52.382;9.020;2023-04-06T04:17:48;0.00;99.90
10306;DHT22;5198;52.382;9.020;2023-04-06T04:21:53;0.00;99.90
10306;DHT22;5198;52.382;9.020;2023-04-06T04:25:56;0.00;99.90
10306;DHT22;5198;52.382;9.020;2023-04-06T04:29:59;-0.10;99.90
10306;DHT22;5198;52.382;9.020;2023-04-06T04:34:02;-0.10;99.90
10306;DHT22;5198;52.382;9.020;2023-04-06T04:38:06;-0.10;99.90
10306;DHT22;5198;52.382;9.020;2023-04-06T04:42:09;-0.10;99.90
10306;DHT22;5198;52.382;9.020;2023-04-06T04:46:12;-0.10;99.90
10306;DHT22;5198;52.382;9.020;2023-04-06T04:50:15;-0.10;99.90
10306;DHT22;5198;52.382;9.020;2023-04-06T04:54:19;-0.10;99.90
10306;DHT22;5198;52.382;9.020;2023-04-06T04:58:22;0.00;99.90
10306;DHT22;5198;52.382;9.020;2023-04-06T05:02:25;0.00;99.90
10306;DHT22;5198;52.382;9.020;2023-04-06T05:06:28;0.00;99.90
10306;DHT22;5198;52.382;9.020;2023-04-06T05:10:32;0.00;99.90
10306;DHT22;5198;52.382;9.020;2023-04-06T05:14:35;0.00;99.90
10306;DHT22;5198;52.382;9.020;2023-04-06T05:18:38;0.00;99.90
10306;DHT22;5198;52.382;9.020;2023-04-06T05:22:41;0.00;99.90
10306;DHT22;5198;52.382;9.020;2023-04-06T05:26:45;0.00;99.90
10306;DHT22;5198;52.382;9.020;2023-04-06T05:30:48;0.00;99.90
10306;DHT22;5198;52.382;9.020;2023-04-06T05:34:51;0.00;99.90
10306;DHT22;5198;52.382;9.020;2023-04-06T05:38:54;0.00;99.90
10306;DHT22;5198;52.382;9.020;2023-04-06T05:42:58;0.10;99.90
10306;DHT22;5198;52.382;9.020;2023-04-06T05:47:02;0.10;99.90
10306;DHT22;5198;52.382;9.020;2023-04-06T05:51:05;0.20;99.90
10306;DHT22;5198;52.382;9.020;2023-04-06T05:55:08;0.30;99.90
10306;DHT22;5198;52.382;9.020;2023-04-06T05:59:13;0.50;99.90
10306;DHT22;5198;52.382;9.020;2023-04-06T06:03:16;0.70;99.90
10306;DHT22;5198;52.382;9.020;2023-04-06T06:07:19;0.90;99.90
10306;DHT22;5198;52.382;9.020;2023-04-06T06:11:22;1.00;99.90
10306;DHT22;5198;52.382;9.020;2023-04-06T06:15:26;1.10;99.90
10306;DHT22;5198;52.382;9.020;2023-04-06T06:19:29;1.20;99.90
10306;DHT22;5198;52.382;9.020;2023-04-06T06:23:32;1.40;99.90
10306;DHT22;5198;52.382;9.020;2023-04-06T06:27:35;1.50;99.90
10306;DHT22;5198;52.382;9.020;2023-04-06T06:31:39;1.70;99.90
10306;DHT22;5198;52.382;9.020;2023-04-06T06:35:42;1.90;99.90
10306;DHT22;5198;52.382;9.020;2023-04-06T06:39:45;2.00;99.90
10306;DHT22;5198;52.382;9.020;2023-04-06T06:43:47;2.20;99.90
10306;DHT22;5198;52.382;9.020;2023-04-06T06:47:52;2.40;99.90
10306;DHT22;5198;52.382;9.020;2023-04-06T06:51:56;2.60;99.90
10306;DHT22;5198;52.382;9.020;2023-04-06T06:55:59;2.80;99.90
10306;DHT22;5198;52.382;9.020;2023-04-06T07:00:02;3.00;99.90
10306;DHT22;5198;52.382;9.020;2023-04-06T07:04:06;3.20;99.90
10306;DHT22;5198;52.382;9.020;2023-04-06T07:08:10;3.50;99.90
10306;DHT22;5198;52.382;9.020;2023-04-06T07:12:13;3.70;99.90
10306;DHT22;5198;52.382;9.020;2023-04-06T07:16:17;3.90;99.90
10306;DHT22;5198;52.382;9.020;2023-04-06T07:24:24;4.40;99.90
10306;DHT22;5198;52.382;9.020;2023-04-06T07:28:28;4.70;99.90
10306;DHT22;5198;52.382;9.020;2023-04-06T07:32:30;4.90;99.90
10306;DHT22;5198;52.382;9.020;2023-04-06T07:36:33;5.20;99.90
10306;DHT22;5198;52.382;9.020;2023-04-06T07:40:37;5.60;99.90
10306;DHT22;5198;52.382;9.020;2023-04-06T07:44:40;5.80;99.90
10306;DHT22;5198;52.382;9.020;2023-04-06T07:48:43;6.00;99.90
10306;DHT22;5198;52.382;9.020;2023-04-06T07:52:46;6.60;99.90
10306;DHT22;5198;52.382;9.020;2023-04-06T07:56:50;6.70;99.90
10306;DHT22;5198;52.382;9.020;2023-04-06T08:00:53;6.90;99.90
10306;DHT22;5198;52.382;9.020;2023-04-06T08:13:04;7.80;99.90
10306;DHT22;5198;52.382;9.020;2023-04-06T08:25:13;8.60;99.90
10306;DHT22;5198;52.382;9.020;2023-04-06T08:29:17;8.80;99.90
10306;DHT22;5198;52.382;9.020;2023-04-06T08:33:21;9.10;99.90
10306;DHT22;5198;52.382;9.020;2023-04-06T08:41:28;9.30;99.90
10306;DHT22;5198;52.382;9.020;2023-04-06T08:45:33;9.70;99.90
10306;DHT22;5198;52.382;9.020;2023-04-06T08:49:37;10.00;99.90
10306;DHT22;5198;52.382;9.020;2023-04-06T08:57:43;10.50;99.90
10306;DHT22;5198;52.382;9.020;2023-04-06T09:01:48;10.70;99.90
10306;DHT22;5198;52.382;9.020;2023-04-06T09:05:51;10.90;99.90
10306;DHT22;5198;52.382;9.020;2023-04-06T09:09:54;11.10;99.90
10306;DHT22;5198;52.382;9.020;2023-04-06T09:13:57;11.20;99.90
10306;DHT22;5198;52.382;9.020;2023-04-06T09:18:01;11.40;99.90
10306;DHT22;5198;52.382;9.020;2023-04-06T09:22:04;11.60;99.90
10306;DHT22;5198;52.382;9.020;2023-04-06T09:26:09;11.90;99.90
10306;DHT22;5198;52.382;9.020;2023-04-06T09:30:12;12.10;99.90
10306;DHT22;5198;52.382;9.020;2023-04-06T09:34:22;12.30;99.90
10306;DHT22;5198;52.382;9.020;2023-04-06T09:38:25;12.50;99.90
10306;DHT22;5198;52.382;9.020;2023-04-06T09:42:28;12.70;99.90
10306;DHT22;5198;52.382;9.020;2023-04-06T09:46:31;12.90;99.90
10306;DHT22;5198;52.382;9.020;2023-04-06T09:50:53;13.00;99.90
10306;DHT22;5198;52.382;9.020;2023-04-06T09:55:01;13.20;99.90
10306;DHT22;5198;52.382;9.020;2023-04-06T09:59:05;13.30;99.90
10306;DHT22;5198;52.382;9.020;2023-04-06T10:03:13;13.40;99.90
10306;DHT22;5198;52.382;9.020;2023-04-06T10:07:19;13.50;99.90
10306;DHT22;5198;52.382;9.020;2023-04-06T10:11:22;13.70;99.90
10306;DHT22;5198;52.382;9.020;2023-04-06T10:15:25;13.80;99.90
10306;DHT22;5198;52.382;9.020;2023-04-06T10:19:30;13.90;99.90
10306;DHT22;5198;52.382;9.020;2023-04-06T10:23:36;14.00;99.20
10306;DHT22;5198;52.382;9.020;2023-04-06T10:27:42;14.00;99.90
10306;DHT22;5198;52.382;9.020;2023-04-06T10:31:44;14.20;99.90
10306;DHT22;5198;52.382;9.020;2023-04-06T10:35:47;14.30;99.90
10306;DHT22;5198;52.382;9.020;2023-04-06T10:39:52;14.40;99.90
10306;DHT22;5198;52.382;9.020;2023-04-06T10:43:59;14.60;99.90
10306;DHT22;5198;52.382;9.020;2023-04-06T10:48:12;14.80;99.90
10306;DHT22;5198;52.382;9.020;2023-04-06T10:52:15;15.00;99.90
10306;DHT22;5198;52.382;9.020;2023-04-06T10:56:21;15.10;97.80
10306;DHT22;5198;52.382;9.020;2023-04-06T11:00:24;15.20;99.90
10306;DHT22;5198;52.382;9.020;2023-04-06T11:04:43;15.30;99.90
10306;DHT22;5198;52.382;9.020;2023-04-06T11:08:56;15.30;99.20
10306;DHT22;5198;52.382;9.020;2023-04-06T11:13:00;15.40;99.00
10306;DHT22;5198;52.382;9.020;2023-04-06T11:17:04;15.40;99.80
10306;DHT22;5198;52.382;9.020;2023-04-06T11:21:06;15.50;99.90
10306;DHT22;5198;52.382;9.020;2023-04-06T11:25:10;15.60;99.90
10306;DHT22;5198;52.382;9.020;2023-04-06T11:29:15;15.70;98.80
10306;DHT22;5198;52.382;9.020;2023-04-06T11:33:21;15.90;99.90
10306;DHT22;5198;52.382;9.020;2023-04-06T11:37:25;15.90;99.90
10306;DHT22;5198;52.382;9.020;2023-04-06T11:41:29;16.10;99.90
10306;DHT22;5198;52.382;9.020;2023-04-06T11:45:40;16.10;97.50
10306;DHT22;5198;52.382;9.020;2023-04-06T11:49:43;16.00;98.40
10306;DHT22;5198;52.382;9.020;2023-04-06T11:53:47;16.00;97.30
10306;DHT22;5198;52.382;9.020;2023-04-06T11:57:50;15.90;97.50
10306;DHT22;5198;52.382;9.020;2023-04-06T12:01:54;16.00;98.00
10306;DHT22;5198;52.382;9.020;2023-04-06T12:05:57;16.10;99.10
10306;DHT22;5198;52.382;9.020;2023-04-06T12:10:03;16.20;99.40
10306;DHT22;5198;52.382;9.020;2023-04-06T12:14:06;16.40;99.20
10306;DHT22;5198;52.382;9.020;2023-04-06T12:18:10;16.50;99.90
10306;DHT22;5198;52.382;9.020;2023-04-06T12:22:13;16.60;99.90
10306;DHT22;5198;52.382;9.020;2023-04-06T12:26:16;16.70;97.60
10306;DHT22;5198;52.382;9.020;2023-04-06T12:30:19;16.70;99.80
10306;DHT22;5198;52.382;9.020;2023-04-06T12:34:23;16.90;99.90
10306;DHT22;5198;52.382;9.020;2023-04-06T12:38:26;16.90;99.50
10306;DHT22;5198;52.382;9.020;2023-04-06T12:42:29;17.00;98.80
10306;DHT22;5198;52.382;9.020;2023-04-06T12:46:32;17.10;99.70
10306;DHT22;5198;52.382;9.020;2023-04-06T12:50:36;17.10;98.10
10306;DHT22;5198;52.382;9.020;2023-04-06T12:54:39;17.10;98.80
10306;DHT22;5198;52.382;9.020;2023-04-06T12:58:42;17.00;98.10
10306;DHT22;5198;52.382;9.020;2023-04-06T13:02:45;17.00;97.50
10306;DHT22;5198;52.382;9.020;2023-04-06T13:06:50;16.90;98.20
10306;DHT22;5198;52.382;9.020;2023-04-06T13:10:53;16.80;96.10
10306;DHT22;5198;52.382;9.020;2023-04-06T13:14:56;16.70;96.40
10306;DHT22;5198;52.382;9.020;2023-04-06T13:18:59;16.60;98.30
10306;DHT22;5198;52.382;9.020;2023-04-06T13:23:04;16.60;98.20
10306;DHT22;5198;52.382;9.020;2023-04-06T13:27:07;16.50;98.00
10306;DHT22;5198;52.382;9.020;2023-04-06T13:31:09;16.50;96.60
10306;DHT22;5198;52.382;9.020;2023-04-06T13:35:12;16.40;97.60
10306;DHT22;5198;52.382;9.020;2023-04-06T13:39:16;16.30;97.20
10306;DHT22;5198;52.382;9.020;2023-04-06T13:43:19;16.30;98.60
10306;DHT22;5198;52.382;9.020;2023-04-06T13:47:22;16.30;97.60
10306;DHT22;5198;52.382;9.020;2023-04-06T13:51:25;16.30;97.10
10306;DHT22;5198;52.382;9.020;2023-04-06T13:55:30;16.20;95.80
10306;DHT22;5198;52.382;9.020;2023-04-06T13:59:33;16.20;97.40
10306;DHT22;5198;52.382;9.020;2023-04-06T14:03:36;16.20;97.70
10306;DHT22;5198;52.382;9.020;2023-04-06T14:07:41;16.20;97.50
10306;DHT22;5198;52.382;9.020;2023-04-06T14:11:45;16.20;96.90
10306;DHT22;5198;52.382;9.020;2023-04-06T14:15:52;16.30;98.20
10306;DHT22;5198;52.382;9.020;2023-04-06T14:19:55;16.30;97.50
10306;DHT22;5198;52.382;9.020;2023-04-06T14:23:57;16.40;95.90
10306;DHT22;5198;52.382;9.020;2023-04-06T14:28:02;16.40;95.50
10306;DHT22;5198;52.382;9.020;2023-04-06T14:32:04;16.40;97.70
10306;DHT22;5198;52.382;9.020;2023-04-06T14:36:07;16.50;97.10
10306;DHT22;5198;52.382;9.020;2023-04-06T14:40:11;16.60;98.40
10306;DHT22;5198;52.382;9.020;2023-04-06T14:44:15;16.70;98.30
10306;DHT22;5198;52.382;9.020;2023-04-06T14:48:18;16.80;98.20
10306;DHT22;5198;52.382;9.020;2023-04-06T14:52:21;16.80;97.70
10306;DHT22;5198;52.382;9.020;2023-04-06T14:56:24;16.90;98.10
10306;DHT22;5198;52.382;9.020;2023-04-06T15:00:28;16.80;95.30
10306;DHT22;5198;52.382;9.020;2023-04-06T15:04:33;16.80;97.60
10306;DHT22;5198;52.382;9.020;2023-04-06T15:08:36;16.70;98.30
10306;DHT22;5198;52.382;9.020;2023-04-06T15:12:40;16.70;96.80
10306;DHT22;5198;52.382;9.020;2023-04-06T15:16:44;16.70;97.20
10306;DHT22;5198;52.382;9.020;2023-04-06T15:20:47;16.70;98.20
10306;DHT22;5198;52.382;9.020;2023-04-06T15:24:50;16.70;97.80
10306;DHT22;5198;52.382;9.020;2023-04-06T15:28:53;16.70;97.70
10306;DHT22;5198;52.382;9.020;2023-04-06T15:32:57;16.70;97.60
10306;DHT22;5198;52.382;9.020;2023-04-06T15:37:02;16.90;97.60
10306;DHT22;5198;52.382;9.020;2023-04-06T15:41:05;17.00;97.50
10306;DHT22;5198;52.382;9.020;2023-04-06T15:45:11;17.10;97.90
10306;DHT22;5198;52.382;9.020;2023-04-06T15:49:16;17.10;95.70
10306;DHT22;5198;52.382;9.020;2023-04-06T15:53:18;17.30;97.70
10306;DHT22;5198;52.382;9.020;2023-04-06T15:57:21;17.40;97.70
10306;DHT22;5198;52.382;9.020;2023-04-06T16:01:24;17.50;97.10
10306;DHT22;5198;52.382;9.020;2023-04-06T16:05:29;17.50;97.50
10306;DHT22;5198;52.382;9.020;2023-04-06T16:09:36;17.60;98.10
10306;DHT22;5198;52.382;9.020;2023-04-06T16:13:39;17.60;97.20
10306;DHT22;5198;52.382;9.020;2023-04-06T16:17:50;17.60;98.70
10306;DHT22;5198;52.382;9.020;2023-04-06T16:21:54;17.60;97.90
10306;DHT22;5198;52.382;9.020;2023-04-06T16:25:58;17.60;96.90
10306;DHT22;5198;52.382;9.020;2023-04-06T16:30:01;17.50;96.80
10306;DHT22;5198;52.382;9.020;2023-04-06T16:34:04;17.30;95.00
10306;DHT22;5198;52.382;9.020;2023-04-06T16:38:09;17.20;96.50
10306;DHT22;5198;52.382;9.020;2023-04-06T16:42:11;16.90;95.70
10306;DHT22;5198;52.382;9.020;2023-04-06T16:46:16;16.80;98.10
10306;DHT22;5198;52.382;9.020;2023-04-06T16:50:19;16.70;97.90
10306;DHT22;5198;52.382;9.020;2023-04-06T16:54:23;16.60;97.70
10306;DHT22;5198;52.382;9.020;2023-04-06T16:58:26;16.40;98.50
10306;DHT22;5198;52.382;9.020;2023-04-06T17:02:29;16.30;97.80
10306;DHT22;5198;52.382;9.020;2023-04-06T17:06:33;16.10;98.10
10306;DHT22;5198;52.382;9.020;2023-04-06T17:10:37;15.90;97.10
10306;DHT22;5198;52.382;9.020;2023-04-06T17:14:52;15.70;98.30
10306;DHT22;5198;52.382;9.020;2023-04-06T17:18:55;15.50;96.90
10306;DHT22;5198;52.382;9.020;2023-04-06T17:22:58;15.40;98.20
10306;DHT22;5198;52.382;9.020;2023-04-06T17:27:02;15.20;98.80
10306;DHT22;5198;52.382;9.020;2023-04-06T17:31:05;15.10;98.90
10306;DHT22;5198;52.382;9.020;2023-04-06T17:35:09;14.90;99.10
10306;DHT22;5198;52.382;9.020;2023-04-06T17:39:12;14.80;99.20
10306;DHT22;5198;52.382;9.020;2023-04-06T17:43:17;14.60;98.50
10306;DHT22;5198;52.382;9.020;2023-04-06T17:47:19;14.40;98.30
10306;DHT22;5198;52.382;9.020;2023-04-06T17:51:22;14.20;98.30
10306;DHT22;5198;52.382;9.020;2023-04-06T17:55:26;14.00;98.30
10306;DHT22;5198;52.382;9.020;2023-04-06T17:59:30;13.90;98.50
10306;DHT22;5198;52.382;9.020;2023-04-06T18:03:33;13.70;98.40
10306;DHT22;5198;52.382;9.020;2023-04-06T18:07:36;13.60;98.70
10306;DHT22;5198;52.382;9.020;2023-04-06T18:11:39;13.50;98.70
10306;DHT22;5198;52.382;9.020;2023-04-06T18:15:44;13.30;98.80
10306;DHT22;5198;52.382;9.020;2023-04-06T18:19:47;13.20;98.80
10306;DHT22;5198;52.382;9.020;2023-04-06T18:23:50;13.10;98.70
10306;DHT22;5198;52.382;9.020;2023-04-06T18:27:53;12.90;98.70
10306;DHT22;5198;52.382;9.020;2023-04-06T18:31:58;12.80;98.80
10306;DHT22;5198;52.382;9.020;2023-04-06T18:36:00;12.70;98.80
10306;DHT22;5198;52.382;9.020;2023-04-06T18:40:04;12.60;98.80
10306;DHT22;5198;52.382;9.020;2023-04-06T18:44:07;12.50;99.10
10306;DHT22;5198;52.382;9.020;2023-04-06T18:48:11;12.40;99.30
10306;DHT22;5198;52.382;9.020;2023-04-06T18:52:14;12.40;99.30
10306;DHT22;5198;52.382;9.020;2023-04-06T18:56:17;12.30;99.60
10306;DHT22;5198;52.382;9.020;2023-04-06T19:00:20;12.20;99.70
10306;DHT22;5198;52.382;9.020;2023-04-06T19:04:24;12.10;99.90
10306;DHT22;5198;52.382;9.020;2023-04-06T19:08:30;12.10;99.90
10306;DHT22;5198;52.382;9.020;2023-04-06T19:12:33;12.00;99.90
10306;DHT22;5198;52.382;9.020;2023-04-06T19:16:40;11.90;99.90
10306;DHT22;5198;52.382;9.020;2023-04-06T19:20:45;11.80;99.90
10306;DHT22;5198;52.382;9.020;2023-04-06T19:24:48;11.80;99.90
10306;DHT22;5198;52.382;9.020;2023-04-06T19:28:51;11.70;99.90
10306;DHT22;5198;52.382;9.020;2023-04-06T19:32:54;11.60;99.90
10306;DHT22;5198;52.382;9.020;2023-04-06T19:36:58;11.50;99.90
10306;DHT22;5198;52.382;9.020;2023-04-06T19:41:01;11.40;99.90
10306;DHT22;5198;52.382;9.020;2023-04-06T19:45:04;11.40;99.90
10306;DHT22;5198;52.382;9.020;2023-04-06T19:49:07;11.30;99.90
10306;DHT22;5198;52.382;9.020;2023-04-06T19:53:11;11.20;99.90
10306;DHT22;5198;52.382;9.020;2023-04-06T19:57:14;11.20;99.90
10306;DHT22;5198;52.382;9.020;2023-04-06T20:01:17;11.10;99.90
10306;DHT22;5198;52.382;9.020;2023-04-06T20:05:20;11.10;99.90
10306;DHT22;5198;52.382;9.020;2023-04-06T20:09:25;11.00;99.90
10306;DHT22;5198;52.382;9.020;2023-04-06T20:13:28;11.00;99.90
10306;DHT22;5198;52.382;9.020;2023-04-06T20:17:32;11.00;99.90
10306;DHT22;5198;52.382;9.020;2023-04-06T20:21:34;10.90;99.90
10306;DHT22;5198;52.382;9.020;2023-04-06T20:25:41;11.00;99.90
10306;DHT22;5198;52.382;9.020;2023-04-06T20:29:44;10.90;99.90
10306;DHT22;5198;52.382;9.020;2023-04-06T20:33:46;10.90;99.90
10306;DHT22;5198;52.382;9.020;2023-04-06T20:37:49;10.80;99.90
10306;DHT22;5198;52.382;9.020;2023-04-06T20:41:54;10.70;99.90
10306;DHT22;5198;52.382;9.020;2023-04-06T20:45:58;10.60;99.90
10306;DHT22;5198;52.382;9.020;2023-04-06T20:50:03;10.60;99.90
10306;DHT22;5198;52.382;9.020;2023-04-06T20:54:06;10.50;99.90
10306;DHT22;5198;52.382;9.020;2023-04-06T20:58:10;10.50;99.90
10306;DHT22;5198;52.382;9.020;2023-04-06T21:02:13;10.40;99.90
10306;DHT22;5198;52.382;9.020;2023-04-06T21:06:16;10.30;99.90
10306;DHT22;5198;52.382;9.020;2023-04-06T21:10:19;10.30;99.90
10306;DHT22;5198;52.382;9.020;2023-04-06T21:14:23;10.20;99.90
10306;DHT22;5198;52.382;9.020;2023-04-06T21:18:27;10.10;99.90
10306;DHT22;5198;52.382;9.020;2023-04-06T21:22:31;10.00;99.90
10306;DHT22;5198;52.382;9.020;2023-04-06T21:26:34;9.90;99.90
10306;DHT22;5198;52.382;9.020;2023-04-06T21:30:38;9.80;99.90
10306;DHT22;5198;52.382;9.020;2023-04-06T21:34:43;9.70;99.90
10306;DHT22;5198;52.382;9.020;2023-04-06T21:38:47;9.70;99.90
10306;DHT22;5198;52.382;9.020;2023-04-06T21:42:49;9.60;99.90
10306;DHT22;5198;52.382;9.020;2023-04-06T21:46:54;9.50;99.90
10306;DHT22;5198;52.382;9.020;2023-04-06T21:50:56;9.40;99.90
10306;DHT22;5198;52.382;9.020;2023-04-06T21:54:59;9.30;99.90
10306;DHT22;5198;52.382;9.020;2023-04-06T21:59:02;9.20;99.90
10306;DHT22;5198;52.382;9.020;2023-04-06T22:03:06;9.10;99.90
10306;DHT22;5198;52.382;9.020;2023-04-06T22:07:09;9.10;99.90
10306;DHT22;5198;52.382;9.020;2023-04-06T22:11:12;9.00;99.90
10306;DHT22;5198;52.382;9.020;2023-04-06T22:15:15;9.00;99.90
10306;DHT22;5198;52.382;9.020;2023-04-06T22:19:19;8.90;99.90
10306;DHT22;5198;52.382;9.020;2023-04-06T22:23:22;8.90;99.90
10306;DHT22;5198;52.382;9.020;2023-04-06T22:27:25;8.90;99.90
10306;DHT22;5198;52.382;9.020;2023-04-06T22:31:28;8.80;99.90
10306;DHT22;5198;52.382;9.020;2023-04-06T22:35:33;8.80;99.90
10306;DHT22;5198;52.382;9.020;2023-04-06T22:39:36;8.80;99.90
10306;DHT22;5198;52.382;9.020;2023-04-06T22:43:39;8.80;99.90
10306;DHT22;5198;52.382;9.020;2023-04-06T22:47:42;8.80;99.90
10306;DHT22;5198;52.382;9.020;2023-04-06T22:51:46;8.70;99.90
10306;DHT22;5198;52.382;9.020;2023-04-06T22:55:49;8.70;99.90
10306;DHT22;5198;52.382;9.020;2023-04-06T22:59:51;8.70;99.90
10306;DHT22;5198;52.382;9.020;2023-04-06T23:03:54;8.60;99.90
10306;DHT22;5198;52.382;9.020;2023-04-06T23:07:59;8.60;99.90
10306;DHT22;5198;52.382;9.020;2023-04-06T23:12:02;8.50;99.90
10306;DHT22;5198;52.382;9.020;2023-04-06T23:16:05;8.50;99.90
10306;DHT22;5198;52.382;9.020;2023-04-06T23:20:10;8.50;99.90
10306;DHT22;5198;52.382;9.020;2023-04-06T23:24:14;8.40;99.90
10306;DHT22;5198;52.382;9.020;2023-04-06T23:28:17;8.40;99.90
10306;DHT22;5198;52.382;9.020;2023-04-06T23:32:20;8.30;99.90
10306;DHT22;5198;52.382;9.020;2023-04-06T23:36:23;8.30;99.90
10306;DHT22;5198;52.382;9.020;2023-04-06T23:40:27;8.30;99.90
10306;DHT22;5198;52.382;9.020;2023-04-06T23:44:30;8.20;99.90
10306;DHT22;5198;52.382;9.020;2023-04-06T23:48:33;8.20;99.90
10306;DHT22;5198;52.382;9.020;2023-04-06T23:52:36;8.20;99.90
10306;DHT22;5198;52.382;9.020;2023-04-06T23:56:40;8.20;99.90
